sensor_id;sensor_type;location;lat;lon;timestamp;P1;durP1;ratioP1;P2;durP2;ratioP2
31584;SDS011;18191;51.288;12.390;2023-08-12T00:03:38;6.65;;;2.83;;
31584;SDS011;18191;51.288;12.390;2023-08-12T00:08:29;18.08;;;3.17;;
31584;SDS011;18191;51.288;12.390;2023-08-12T00:13:19;8.95;;;2.35;;
31584;SDS011;18191;51.288;12.390;2023-08-12T00:18:10;8.90;;;3.30;;
31584;SDS011;18191;51.288;12.390;2023-08-12T00:23:01;7.75;;;3.00;;
31584;SDS011;18191;51.288;12.390;2023-08-12T00:27:52;7.43;;;2.33;;
31584;SDS011;18191;51.288;12.390;2023-08-12T00:32:42;5.28;;;2.55;;
31584;SDS011;18191;51.288;12.390;2023-08-12T00:37:32;11.63;;;2.47;;
31584;SDS011;18191;51.288;12.390;2023-08-12T00:42:23;8.02;;;2.60;;
31584;SDS011;18191;51.288;12.390;2023-08-12T00:47:13;8.98;;;2.33;;
31584;SDS011;18191;51.288;12.390;2023-08-12T00:52:04;8.18;;;2.70;;
31584;SDS011;18191;51.288;12.390;2023-08-12T00:56:55;4.00;;;2.10;;
31584;SDS011;18191;51.288;12.390;2023-08-12T01:01:45;10.05;;;3.53;;
31584;SDS011;18191;51.288;12.390;2023-08-12T01:06:36;11.23;;;2.47;;
31584;SDS011;18191;51.288;12.390;2023-08-12T01:11:28;4.90;;;2.17;;
31584;SDS011;18191;51.288;12.390;2023-08-12T01:16:22;8.75;;;2.83;;
31584;SDS011;18191;51.288;12.390;2023-08-12T01:21:15;8.25;;;3.05;;
31584;SDS011;18191;51.288;12.390;2023-08-12T01:26:07;6.38;;;2.63;;
31584;SDS011;18191;51.288;12.390;2023-08-12T01:30:59;10.75;;;3.33;;
31584;SDS011;18191;51.288;12.390;2023-08-12T01:36:04;9.73;;;2.95;;
31584;SDS011;18191;51.288;12.390;2023-08-12T01:40:59;12.15;;;2.78;;
31584;SDS011;18191;51.288;12.390;2023-08-12T01:45:51;10.27;;;3.00;;
31584;SDS011;18191;51.288;12.390;2023-08-12T01:50:41;8.90;;;3.83;;
31584;SDS011;18191;51.288;12.390;2023-08-12T01:55:36;13.50;;;3.95;;
31584;SDS011;18191;51.288;12.390;2023-08-12T02:00:27;12.77;;;4.38;;
31584;SDS011;18191;51.288;12.390;2023-08-12T02:05:17;5.60;;;2.73;;
31584;SDS011;18191;51.288;12.390;2023-08-12T02:10:07;12.43;;;4.57;;
31584;SDS011;18191;51.288;12.390;2023-08-12T02:14:58;11.15;;;3.45;;
31584;SDS011;18191;51.288;12.390;2023-08-12T02:19:48;11.82;;;4.05;;
31584;SDS011;18191;51.288;12.390;2023-08-12T02:24:38;9.65;;;3.83;;
31584;SDS011;18191;51.288;12.390;2023-08-12T02:29:29;14.52;;;4.35;;
31584;SDS011;18191;51.288;12.390;2023-08-12T02:34:19;4.90;;;3.20;;
31584;SDS011;18191;51.288;12.390;2023-08-12T02:39:09;13.63;;;4.50;;
31584;SDS011;18191;51.288;12.390;2023-08-12T02:43:59;7.22;;;3.88;;
31584;SDS011;18191;51.288;12.390;2023-08-12T02:48:50;9.23;;;4.18;;
31584;SDS011;18191;51.288;12.390;2023-08-12T02:53:40;18.90;;;4.27;;
31584;SDS011;18191;51.288;12.390;2023-08-12T02:58:30;9.43;;;4.20;;
31584;SDS011;18191;51.288;12.390;2023-08-12T03:03:21;13.10;;;3.65;;
31584;SDS011;18191;51.288;12.390;2023-08-12T03:08:11;6.38;;;3.83;;
31584;SDS011;18191;51.288;12.390;2023-08-12T03:13:01;8.77;;;4.57;;
31584;SDS011;18191;51.288;12.390;2023-08-12T03:17:52;9.07;;;4.18;;
31584;SDS011;18191;51.288;12.390;2023-08-12T03:22:42;9.02;;;3.80;;
31584;SDS011;18191;51.288;12.390;2023-08-12T03:27:32;8.77;;;3.38;;
31584;SDS011;18191;51.288;12.390;2023-08-12T03:32:23;6.15;;;3.72;;
31584;SDS011;18191;51.288;12.390;2023-08-12T03:37:14;6.72;;;3.40;;
31584;SDS011;18191;51.288;12.390;2023-08-12T03:42:04;8.48;;;4.15;;
31584;SDS011;18191;51.288;12.390;2023-08-12T03:46:55;11.13;;;3.75;;
31584;SDS011;18191;51.288;12.390;2023-08-12T03:51:45;13.85;;;3.72;;
31584;SDS011;18191;51.288;12.390;2023-08-12T03:56:35;8.63;;;3.78;;
31584;SDS011;18191;51.288;12.390;2023-08-12T04:01:26;6.90;;;3.42;;
31584;SDS011;18191;51.288;12.390;2023-08-12T04:06:16;9.77;;;3.67;;
31584;SDS011;18191;51.288;12.390;2023-08-12T04:11:06;5.82;;;3.55;;
31584;SDS011;18191;51.288;12.390;2023-08-12T04:15:56;7.47;;;3.50;;
31584;SDS011;18191;51.288;12.390;2023-08-12T04:20:50;6.93;;;3.33;;
31584;SDS011;18191;51.288;12.390;2023-08-12T04:25:45;10.25;;;3.90;;
31584;SDS011;18191;51.288;12.390;2023-08-12T04:30:40;6.72;;;3.40;;
31584;SDS011;18191;51.288;12.390;2023-08-12T04:35:31;11.15;;;3.40;;
31584;SDS011;18191;51.288;12.390;2023-08-12T04:40:22;14.38;;;3.88;;
31584;SDS011;18191;51.288;12.390;2023-08-12T04:45:12;10.88;;;4.20;;
31584;SDS011;18191;51.288;12.390;2023-08-12T04:50:03;6.97;;;3.20;;
31584;SDS011;18191;51.288;12.390;2023-08-12T04:54:53;6.45;;;3.13;;
31584;SDS011;18191;51.288;12.390;2023-08-12T04:59:44;6.15;;;3.25;;
31584;SDS011;18191;51.288;12.390;2023-08-12T05:04:34;7.15;;;3.75;;
31584;SDS011;18191;51.288;12.390;2023-08-12T05:09:24;8.20;;;3.53;;
31584;SDS011;18191;51.288;12.390;2023-08-12T05:14:15;13.53;;;3.30;;
31584;SDS011;18191;51.288;12.390;2023-08-12T05:19:05;8.10;;;3.55;;
31584;SDS011;18191;51.288;12.390;2023-08-12T05:23:55;5.35;;;3.38;;
31584;SDS011;18191;51.288;12.390;2023-08-12T05:28:45;12.60;;;3.42;;
31584;SDS011;18191;51.288;12.390;2023-08-12T05:33:36;6.50;;;3.08;;
31584;SDS011;18191;51.288;12.390;2023-08-12T05:38:26;10.63;;;3.67;;
31584;SDS011;18191;51.288;12.390;2023-08-12T05:43:16;9.85;;;2.88;;
31584;SDS011;18191;51.288;12.390;2023-08-12T05:48:07;5.90;;;3.28;;
31584;SDS011;18191;51.288;12.390;2023-08-12T05:52:58;5.88;;;3.03;;
31584;SDS011;18191;51.288;12.390;2023-08-12T05:57:48;4.50;;;2.75;;
31584;SDS011;18191;51.288;12.390;2023-08-12T06:02:38;6.47;;;3.25;;
31584;SDS011;18191;51.288;12.390;2023-08-12T06:07:28;5.73;;;2.70;;
31584;SDS011;18191;51.288;12.390;2023-08-12T06:12:19;5.70;;;2.65;;
31584;SDS011;18191;51.288;12.390;2023-08-12T06:17:09;5.82;;;2.80;;
31584;SDS011;18191;51.288;12.390;2023-08-12T06:21:59;7.90;;;2.65;;
31584;SDS011;18191;51.288;12.390;2023-08-12T06:26:50;5.78;;;2.53;;
31584;SDS011;18191;51.288;12.390;2023-08-12T06:31:40;4.97;;;2.47;;
31584;SDS011;18191;51.288;12.390;2023-08-12T06:36:30;4.32;;;2.72;;
31584;SDS011;18191;51.288;12.390;2023-08-12T06:41:21;3.72;;;2.65;;
31584;SDS011;18191;51.288;12.390;2023-08-12T06:46:11;8.75;;;2.78;;
31584;SDS011;18191;51.288;12.390;2023-08-12T06:51:01;4.95;;;3.05;;
31584;SDS011;18191;51.288;12.390;2023-08-12T06:55:57;6.35;;;3.13;;
31584;SDS011;18191;51.288;12.390;2023-08-12T07:00:47;4.50;;;2.63;;
31584;SDS011;18191;51.288;12.390;2023-08-12T07:05:37;6.88;;;2.97;;
31584;SDS011;18191;51.288;12.390;2023-08-12T07:10:27;6.55;;;2.85;;
31584;SDS011;18191;51.288;12.390;2023-08-12T07:15:18;5.00;;;3.03;;
31584;SDS011;18191;51.288;12.390;2023-08-12T07:20:08;3.77;;;2.47;;
31584;SDS011;18191;51.288;12.390;2023-08-12T07:24:58;6.75;;;3.10;;
31584;SDS011;18191;51.288;12.390;2023-08-12T07:29:50;7.93;;;3.13;;
31584;SDS011;18191;51.288;12.390;2023-08-12T07:34:40;8.98;;;3.15;;
31584;SDS011;18191;51.288;12.390;2023-08-12T07:39:30;4.70;;;2.70;;
31584;SDS011;18191;51.288;12.390;2023-08-12T07:44:20;7.30;;;3.50;;
31584;SDS011;18191;51.288;12.390;2023-08-12T07:49:11;5.55;;;3.03;;
31584;SDS011;18191;51.288;12.390;2023-08-12T07:54:01;4.40;;;2.77;;
31584;SDS011;18191;51.288;12.390;2023-08-12T07:58:51;6.45;;;3.53;;
31584;SDS011;18191;51.288;12.390;2023-08-12T08:03:42;5.68;;;2.83;;
31584;SDS011;18191;51.288;12.390;2023-08-12T08:08:32;8.48;;;3.45;;
31584;SDS011;18191;51.288;12.390;2023-08-12T08:13:22;4.25;;;2.75;;
31584;SDS011;18191;51.288;12.390;2023-08-12T08:18:12;3.88;;;2.47;;
31584;SDS011;18191;51.288;12.390;2023-08-12T08:23:03;6.50;;;2.63;;
31584;SDS011;18191;51.288;12.390;2023-08-12T08:27:53;14.50;;;3.45;;
31584;SDS011;18191;51.288;12.390;2023-08-12T08:37:36;5.45;;;3.30;;
31584;SDS011;18191;51.288;12.390;2023-08-12T08:42:26;9.90;;;3.30;;
31584;SDS011;18191;51.288;12.390;2023-08-12T08:47:19;10.48;;;4.47;;
31584;SDS011;18191;51.288;12.390;2023-08-12T08:52:14;5.97;;;3.83;;
31584;SDS011;18191;51.288;12.390;2023-08-12T08:57:06;4.63;;;3.00;;
31584;SDS011;18191;51.288;12.390;2023-08-12T09:01:56;7.88;;;2.92;;
31584;SDS011;18191;51.288;12.390;2023-08-12T09:06:49;5.40;;;3.42;;
31584;SDS011;18191;51.288;12.390;2023-08-12T09:11:41;6.88;;;3.55;;
31584;SDS011;18191;51.288;12.390;2023-08-12T09:16:31;8.63;;;3.17;;
31584;SDS011;18191;51.288;12.390;2023-08-12T09:21:22;12.17;;;3.47;;
31584;SDS011;18191;51.288;12.390;2023-08-12T09:31:03;10.15;;;3.05;;
31584;SDS011;18191;51.288;12.390;2023-08-12T09:35:54;6.37;;;2.70;;
31584;SDS011;18191;51.288;12.390;2023-08-12T09:40:46;8.40;;;2.80;;
31584;SDS011;18191;51.288;12.390;2023-08-12T09:45:37;5.57;;;3.10;;
31584;SDS011;18191;51.288;12.390;2023-08-12T09:50:28;9.27;;;3.55;;
31584;SDS011;18191;51.288;12.390;2023-08-12T09:55:19;7.20;;;2.97;;
31584;SDS011;18191;51.288;12.390;2023-08-12T10:00:12;6.25;;;2.45;;
31584;SDS011;18191;51.288;12.390;2023-08-12T10:05:06;10.05;;;3.17;;
31584;SDS011;18191;51.288;12.390;2023-08-12T10:10:01;4.10;;;2.67;;
31584;SDS011;18191;51.288;12.390;2023-08-12T10:14:52;5.47;;;2.95;;
31584;SDS011;18191;51.288;12.390;2023-08-12T10:19:45;4.95;;;2.70;;
31584;SDS011;18191;51.288;12.390;2023-08-12T10:24:37;8.40;;;2.85;;
31584;SDS011;18191;51.288;12.390;2023-08-12T10:29:29;7.97;;;2.40;;
31584;SDS011;18191;51.288;12.390;2023-08-12T10:34:21;4.93;;;3.22;;
31584;SDS011;18191;51.288;12.390;2023-08-12T10:39:14;4.15;;;2.95;;
31584;SDS011;18191;51.288;12.390;2023-08-12T10:44:05;10.57;;;3.22;;
31584;SDS011;18191;51.288;12.390;2023-08-12T10:48:56;10.07;;;3.30;;
31584;SDS011;18191;51.288;12.390;2023-08-12T10:54:09;6.72;;;3.50;;
31584;SDS011;18191;51.288;12.390;2023-08-12T10:59:03;8.77;;;3.97;;
31584;SDS011;18191;51.288;12.390;2023-08-12T11:03:53;5.72;;;3.50;;
31584;SDS011;18191;51.288;12.390;2023-08-12T11:13:52;6.93;;;3.85;;
31584;SDS011;18191;51.288;12.390;2023-08-12T11:18:43;7.60;;;4.15;;
31584;SDS011;18191;51.288;12.390;2023-08-12T11:28:24;11.20;;;4.07;;
31584;SDS011;18191;51.288;12.390;2023-08-12T11:33:15;10.88;;;3.33;;
31584;SDS011;18191;51.288;12.390;2023-08-12T11:38:08;7.18;;;3.45;;
31584;SDS011;18191;51.288;12.390;2023-08-12T11:42:59;8.90;;;3.25;;
31584;SDS011;18191;51.288;12.390;2023-08-12T11:47:49;6.20;;;2.55;;
31584;SDS011;18191;51.288;12.390;2023-08-12T11:52:43;5.45;;;2.33;;
31584;SDS011;18191;51.288;12.390;2023-08-12T11:57:34;2.93;;;2.17;;
31584;SDS011;18191;51.288;12.390;2023-08-12T12:02:24;3.72;;;2.05;;
31584;SDS011;18191;51.288;12.390;2023-08-12T12:07:18;7.80;;;2.17;;
31584;SDS011;18191;51.288;12.390;2023-08-12T12:12:10;3.55;;;2.15;;
31584;SDS011;18191;51.288;12.390;2023-08-12T12:17:00;4.72;;;2.17;;
31584;SDS011;18191;51.288;12.390;2023-08-12T12:21:57;5.97;;;2.13;;
31584;SDS011;18191;51.288;12.390;2023-08-12T12:26:53;3.08;;;1.85;;
31584;SDS011;18191;51.288;12.390;2023-08-12T12:31:43;10.40;;;2.33;;
31584;SDS011;18191;51.288;12.390;2023-08-12T12:36:34;2.88;;;1.92;;
31584;SDS011;18191;51.288;12.390;2023-08-12T12:41:26;3.50;;;1.92;;
31584;SDS011;18191;51.288;12.390;2023-08-12T12:46:16;7.70;;;1.83;;
31584;SDS011;18191;51.288;12.390;2023-08-12T12:51:06;3.40;;;1.50;;
31584;SDS011;18191;51.288;12.390;2023-08-12T12:55:57;2.17;;;1.60;;
31584;SDS011;18191;51.288;12.390;2023-08-12T13:00:50;3.63;;;2.00;;
31584;SDS011;18191;51.288;12.390;2023-08-12T13:05:40;7.85;;;1.67;;
31584;SDS011;18191;51.288;12.390;2023-08-12T13:10:31;3.67;;;1.70;;
31584;SDS011;18191;51.288;12.390;2023-08-12T13:15:22;4.55;;;1.70;;
31584;SDS011;18191;51.288;12.390;2023-08-12T13:20:14;4.03;;;2.13;;
31584;SDS011;18191;51.288;12.390;2023-08-12T13:25:04;3.53;;;1.95;;
31584;SDS011;18191;51.288;12.390;2023-08-12T13:29:55;2.03;;;1.70;;
31584;SDS011;18191;51.288;12.390;2023-08-12T13:34:45;4.78;;;2.45;;
31584;SDS011;18191;51.288;12.390;2023-08-12T13:39:37;2.90;;;1.60;;
31584;SDS011;18191;51.288;12.390;2023-08-12T13:44:28;6.38;;;2.28;;
31584;SDS011;18191;51.288;12.390;2023-08-12T13:49:18;12.43;;;1.95;;
31584;SDS011;18191;51.288;12.390;2023-08-12T13:54:08;2.77;;;2.10;;
31584;SDS011;18191;51.288;12.390;2023-08-12T13:58:58;3.70;;;1.98;;
31584;SDS011;18191;51.288;12.390;2023-08-12T14:03:49;4.30;;;1.87;;
31584;SDS011;18191;51.288;12.390;2023-08-12T14:08:39;8.20;;;1.97;;
31584;SDS011;18191;51.288;12.390;2023-08-12T14:13:29;3.72;;;1.90;;
31584;SDS011;18191;51.288;12.390;2023-08-12T14:18:20;3.43;;;1.90;;
31584;SDS011;18191;51.288;12.390;2023-08-12T14:23:10;3.63;;;1.88;;
31584;SDS011;18191;51.288;12.390;2023-08-12T14:28:00;2.13;;;1.65;;
31584;SDS011;18191;51.288;12.390;2023-08-12T14:32:50;2.55;;;1.65;;
31584;SDS011;18191;51.288;12.390;2023-08-12T14:37:41;7.03;;;2.20;;
31584;SDS011;18191;51.288;12.390;2023-08-12T14:42:31;5.00;;;1.80;;
31584;SDS011;18191;51.288;12.390;2023-08-12T14:47:22;3.83;;;1.95;;
31584;SDS011;18191;51.288;12.390;2023-08-12T14:52:16;7.10;;;1.90;;
31584;SDS011;18191;51.288;12.390;2023-08-12T14:57:07;4.45;;;1.85;;
31584;SDS011;18191;51.288;12.390;2023-08-12T15:01:57;6.43;;;1.90;;
31584;SDS011;18191;51.288;12.390;2023-08-12T15:06:47;4.63;;;2.13;;
31584;SDS011;18191;51.288;12.390;2023-08-12T15:11:38;4.53;;;2.33;;
31584;SDS011;18191;51.288;12.390;2023-08-12T15:16:28;3.03;;;1.65;;
31584;SDS011;18191;51.288;12.390;2023-08-12T15:21:18;3.05;;;1.92;;
31584;SDS011;18191;51.288;12.390;2023-08-12T15:26:09;8.43;;;2.53;;
31584;SDS011;18191;51.288;12.390;2023-08-12T15:30:59;9.27;;;1.92;;
31584;SDS011;18191;51.288;12.390;2023-08-12T15:35:49;20.33;;;2.75;;
31584;SDS011;18191;51.288;12.390;2023-08-12T15:40:39;4.40;;;2.27;;
31584;SDS011;18191;51.288;12.390;2023-08-12T15:45:30;9.90;;;3.25;;
31584;SDS011;18191;51.288;12.390;2023-08-12T15:50:20;8.27;;;3.63;;
31584;SDS011;18191;51.288;12.390;2023-08-12T15:55:11;17.45;;;3.67;;
31584;SDS011;18191;51.288;12.390;2023-08-12T16:00:01;9.10;;;3.97;;
31584;SDS011;18191;51.288;12.390;2023-08-12T16:04:54;13.60;;;4.63;;
31584;SDS011;18191;51.288;12.390;2023-08-12T16:09:45;12.80;;;3.67;;
31584;SDS011;18191;51.288;12.390;2023-08-12T16:14:41;8.90;;;3.72;;
31584;SDS011;18191;51.288;12.390;2023-08-12T16:19:32;9.10;;;3.60;;
31584;SDS011;18191;51.288;12.390;2023-08-12T16:29:12;7.15;;;4.00;;
31584;SDS011;18191;51.288;12.390;2023-08-12T16:34:02;8.80;;;3.87;;
31584;SDS011;18191;51.288;12.390;2023-08-12T16:38:52;11.70;;;4.13;;
31584;SDS011;18191;51.288;12.390;2023-08-12T16:43:43;12.57;;;4.35;;
31584;SDS011;18191;51.288;12.390;2023-08-12T16:48:33;11.07;;;4.50;;
31584;SDS011;18191;51.288;12.390;2023-08-12T16:53:23;9.10;;;3.88;;
31584;SDS011;18191;51.288;12.390;2023-08-12T16:58:13;10.20;;;3.92;;
31584;SDS011;18191;51.288;12.390;2023-08-12T17:03:03;11.70;;;3.83;;
31584;SDS011;18191;51.288;12.390;2023-08-12T17:07:54;10.45;;;3.42;;
31584;SDS011;18191;51.288;12.390;2023-08-12T17:17:34;11.90;;;4.28;;
31584;SDS011;18191;51.288;12.390;2023-08-12T17:32:04;5.90;;;2.95;;
31584;SDS011;18191;51.288;12.390;2023-08-12T17:36:55;14.38;;;2.83;;
31584;SDS011;18191;51.288;12.390;2023-08-12T17:41:46;7.53;;;3.38;;
31584;SDS011;18191;51.288;12.390;2023-08-12T17:46:36;8.40;;;3.70;;
31584;SDS011;18191;51.288;12.390;2023-08-12T17:51:26;12.30;;;3.53;;
31584;SDS011;18191;51.288;12.390;2023-08-12T18:01:07;6.00;;;3.00;;
31584;SDS011;18191;51.288;12.390;2023-08-12T18:10:47;3.58;;;2.40;;
31584;SDS011;18191;51.288;12.390;2023-08-12T18:20:27;16.38;;;2.85;;
31584;SDS011;18191;51.288;12.390;2023-08-12T18:25:18;9.93;;;2.60;;
31584;SDS011;18191;51.288;12.390;2023-08-12T18:30:08;6.93;;;2.67;;
31584;SDS011;18191;51.288;12.390;2023-08-12T18:34:58;8.70;;;2.22;;
31584;SDS011;18191;51.288;12.390;2023-08-12T18:39:48;8.43;;;2.17;;
31584;SDS011;18191;51.288;12.390;2023-08-12T18:44:38;8.40;;;2.92;;
31584;SDS011;18191;51.288;12.390;2023-08-12T18:49:29;6.03;;;2.42;;
31584;SDS011;18191;51.288;12.390;2023-08-12T18:54:19;5.13;;;2.35;;
31584;SDS011;18191;51.288;12.390;2023-08-12T18:59:09;5.13;;;2.63;;
31584;SDS011;18191;51.288;12.390;2023-08-12T19:03:59;5.30;;;2.75;;
31584;SDS011;18191;51.288;12.390;2023-08-12T19:08:49;4.18;;;2.28;;
31584;SDS011;18191;51.288;12.390;2023-08-12T19:13:40;7.43;;;2.22;;
31584;SDS011;18191;51.288;12.390;2023-08-12T19:18:30;7.35;;;3.22;;
31584;SDS011;18191;51.288;12.390;2023-08-12T19:23:20;9.18;;;3.17;;
31584;SDS011;18191;51.288;12.390;2023-08-12T19:28:10;5.68;;;2.38;;
31584;SDS011;18191;51.288;12.390;2023-08-12T19:33:00;9.23;;;3.28;;
31584;SDS011;18191;51.288;12.390;2023-08-12T19:37:54;3.88;;;2.80;;
31584;SDS011;18191;51.288;12.390;2023-08-12T19:42:44;11.52;;;3.03;;
31584;SDS011;18191;51.288;12.390;2023-08-12T19:47:35;5.40;;;2.67;;
31584;SDS011;18191;51.288;12.390;2023-08-12T19:52:26;13.63;;;2.67;;
31584;SDS011;18191;51.288;12.390;2023-08-12T19:57:16;4.85;;;2.13;;
31584;SDS011;18191;51.288;12.390;2023-08-12T20:02:06;7.75;;;1.70;;
31584;SDS011;18191;51.288;12.390;2023-08-12T20:06:56;7.13;;;2.13;;
31584;SDS011;18191;51.288;12.390;2023-08-12T20:11:47;7.50;;;1.85;;
31584;SDS011;18191;51.288;12.390;2023-08-12T20:16:37;2.60;;;1.73;;
31584;SDS011;18191;51.288;12.390;2023-08-12T20:21:27;3.25;;;1.35;;
31584;SDS011;18191;51.288;12.390;2023-08-12T20:26:17;3.20;;;1.75;;
31584;SDS011;18191;51.288;12.390;2023-08-12T20:31:07;34.05;;;2.15;;
31584;SDS011;18191;51.288;12.390;2023-08-12T20:35:58;5.05;;;2.28;;
31584;SDS011;18191;51.288;12.390;2023-08-12T20:40:48;3.72;;;1.50;;
31584;SDS011;18191;51.288;12.390;2023-08-12T20:45:38;6.15;;;1.55;;
31584;SDS011;18191;51.288;12.390;2023-08-12T20:50:28;4.70;;;1.55;;
31584;SDS011;18191;51.288;12.390;2023-08-12T20:55:19;5.95;;;1.30;;
31584;SDS011;18191;51.288;12.390;2023-08-12T21:00:09;11.63;;;1.45;;
31584;SDS011;18191;51.288;12.390;2023-08-12T21:05:01;4.93;;;1.27;;
31584;SDS011;18191;51.288;12.390;2023-08-12T21:09:52;3.45;;;1.60;;
31584;SDS011;18191;51.288;12.390;2023-08-12T21:14:42;3.70;;;1.45;;
31584;SDS011;18191;51.288;12.390;2023-08-12T21:19:32;3.67;;;1.43;;
31584;SDS011;18191;51.288;12.390;2023-08-12T21:24:22;10.02;;;2.00;;
31584;SDS011;18191;51.288;12.390;2023-08-12T21:29:12;5.88;;;1.58;;
31584;SDS011;18191;51.288;12.390;2023-08-12T21:34:03;6.97;;;1.48;;
31584;SDS011;18191;51.288;12.390;2023-08-12T21:38:53;2.90;;;1.40;;
31584;SDS011;18191;51.288;12.390;2023-08-12T21:43:43;4.93;;;2.17;;
31584;SDS011;18191;51.288;12.390;2023-08-12T21:48:34;6.25;;;2.00;;
31584;SDS011;18191;51.288;12.390;2023-08-12T21:53:24;5.07;;;2.05;;
31584;SDS011;18191;51.288;12.390;2023-08-12T21:58:14;4.22;;;1.70;;
31584;SDS011;18191;51.288;12.390;2023-08-12T22:03:04;5.70;;;1.88;;
31584;SDS011;18191;51.288;12.390;2023-08-12T22:07:54;6.47;;;1.35;;
31584;SDS011;18191;51.288;12.390;2023-08-12T22:12:45;3.13;;;1.90;;
31584;SDS011;18191;51.288;12.390;2023-08-12T22:17:35;3.90;;;1.83;;
31584;SDS011;18191;51.288;12.390;2023-08-12T22:22:26;3.13;;;1.85;;
31584;SDS011;18191;51.288;12.390;2023-08-12T22:27:17;4.72;;;1.80;;
31584;SDS011;18191;51.288;12.390;2023-08-12T22:32:07;8.65;;;1.75;;
31584;SDS011;18191;51.288;12.390;2023-08-12T22:36:57;7.15;;;1.83;;
31584;SDS011;18191;51.288;12.390;2023-08-12T22:41:48;4.07;;;2.17;;
31584;SDS011;18191;51.288;12.390;2023-08-12T22:46:38;7.60;;;1.70;;
31584;SDS011;18191;51.288;12.390;2023-08-12T22:51:28;4.68;;;2.10;;
31584;SDS011;18191;51.288;12.390;2023-08-12T22:56:18;4.40;;;2.15;;
31584;SDS011;18191;51.288;12.390;2023-08-12T23:01:08;3.85;;;2.00;;
31584;SDS011;18191;51.288;12.390;2023-08-12T23:05:59;5.07;;;2.40;;
31584;SDS011;18191;51.288;12.390;2023-08-12T23:10:50;9.88;;;2.40;;
31584;SDS011;18191;51.288;12.390;2023-08-12T23:15:41;7.78;;;1.98;;
31584;SDS011;18191;51.288;12.390;2023-08-12T23:20:32;5.63;;;1.98;;
31584;SDS011;18191;51.288;12.390;2023-08-12T23:25:22;8.17;;;2.03;;
31584;SDS011;18191;51.288;12.390;2023-08-12T23:30:12;8.60;;;2.45;;
31584;SDS011;18191;51.288;12.390;2023-08-12T23:35:04;6.07;;;2.55;;
31584;SDS011;18191;51.288;12.390;2023-08-12T23:39:54;6.87;;;2.33;;
31584;SDS011;18191;51.288;12.390;2023-08-12T23:44:44;9.02;;;2.70;;
31584;SDS011;18191;51.288;12.390;2023-08-12T23:49:34;3.70;;;2.60;;
31584;SDS011;18191;51.288;12.390;2023-08-12T23:54:25;8.25;;;2.20;;
31584;SDS011;18191;51.288;12.390;2023-08-12T23:59:15;6.25;;;2.85;;
